Time;durP1;ratioP1;P1;durP2;ratioP2;P2;SDS_P1;SDS_P2;PMS_P1;PMS_P2;Temp;Humidity;BMP_temperature;BMP_pressure;BME280_temperature;BME280_humidity;BME280_pressure;Samples;Min_cycle;Max_cycle;Signal;HPM_P1;HPM_P2
2022/03/06 00:01:44;;;;;;;9.02;4.13;;;3.40;56.10;;;;;;5008331;28;20033;-78
2022/03/06 00:04:10;;;;;;;7.60;4.70;;;3.40;56.10;;;;;;4997833;28;20678;-77
2022/03/06 00:06:37;;;;;;;11.82;5.28;;;3.40;56.20;;;;;;5002746;28;20511;-78
2022/03/06 00:09:03;;;;;;;10.10;5.03;;;3.40;56.40;;;;;;4994775;28;20037;-76
2022/03/06 00:11:29;;;;;;;7.90;4.55;;;3.40;56.40;;;;;;4986774;28;20046;-76
2022/03/06 00:13:55;;;;;;;7.90;4.65;;;3.40;56.40;;;;;;5015772;28;20113;-76
2022/03/06 00:16:20;;;;;;;7.40;4.43;;;3.30;56.30;;;;;;5028369;28;20076;-76
2022/03/06 00:18:46;;;;;;;9.45;4.63;;;3.30;56.30;;;;;;5019356;28;20065;-76
2022/03/06 00:21:12;;;;;;;5.93;3.70;;;3.30;56.30;;;;;;5005390;28;20179;-76
2022/03/06 00:23:38;;;;;;;7.63;4.10;;;3.20;56.30;;;;;;4987611;28;20075;-76
2022/03/06 00:26:03;;;;;;;7.72;4.65;;;3.20;56.40;;;;;;4988373;28;20525;-76
2022/03/06 00:28:29;;;;;;;10.70;4.88;;;3.20;56.40;;;;;;5003823;28;20113;-79
2022/03/06 00:30:54;;;;;;;6.57;4.03;;;3.20;56.60;;;;;;4985081;28;20050;-76
2022/03/06 00:33:20;;;;;;;8.23;4.45;;;3.20;56.60;;;;;;5019784;28;20045;-77
2022/03/06 00:35:46;;;;;;;7.55;5.25;;;3.20;56.90;;;;;;4979890;28;20391;-76
2022/03/06 00:38:11;;;;;;;7.22;4.05;;;3.20;56.90;;;;;;4985945;28;20046;-77
2022/03/06 00:40:37;;;;;;;6.95;4.35;;;3.20;56.90;;;;;;4982341;28;20034;-77
2022/03/06 00:43:02;;;;;;;7.95;4.68;;;3.20;56.90;;;;;;5002266;28;20030;-76
2022/03/06 00:45:28;;;;;;;10.48;4.78;;;3.20;56.90;;;;;;4968433;28;20044;-77
2022/03/06 00:47:53;;;;;;;8.18;4.30;;;3.20;56.90;;;;;;5012312;28;20844;-76
2022/03/06 00:50:19;;;;;;;7.35;4.30;;;3.20;56.90;;;;;;4986787;28;20502;-77
2022/03/06 00:52:44;;;;;;;9.15;5.05;;;3.10;56.80;;;;;;4995071;28;20498;-76
2022/03/06 00:55:10;;;;;;;7.65;4.43;;;3.10;56.70;;;;;;5028593;28;20431;-77
2022/03/06 00:57:35;;;;;;;9.77;4.60;;;3.10;56.70;;;;;;5013054;28;20480;-76
2022/03/06 01:00:01;;;;;;;7.88;4.35;;;3.10;56.80;;;;;;5007751;28;20033;-76
2022/03/06 01:02:27;;;;;;;7.68;4.53;;;3.10;56.80;;;;;;4999982;28;20034;-76
2022/03/06 01:04:52;;;;;;;8.05;4.47;;;3.10;56.80;;;;;;5015711;28;20038;-77
2022/03/06 01:07:18;;;;;;;7.85;4.45;;;3.10;56.80;;;;;;4987948;28;20033;-77
2022/03/06 01:09:43;;;;;;;8.85;4.85;;;3.10;56.80;;;;;;5013606;28;20038;-76
2022/03/06 01:12:09;;;;;;;7.57;3.92;;;3.10;56.80;;;;;;5015815;28;20061;-76
2022/03/06 01:14:35;;;;;;;6.13;4.07;;;3.10;57.00;;;;;;5031210;28;20029;-77
2022/03/06 01:17:00;;;;;;;6.85;4.05;;;3.10;57.00;;;;;;5009091;28;20503;-76
2022/03/06 01:19:26;;;;;;;5.90;3.80;;;3.10;57.10;;;;;;4972063;28;20044;-76
2022/03/06 01:21:51;;;;;;;8.07;4.40;;;3.10;57.30;;;;;;4997116;28;20383;-77
2022/03/06 01:24:17;;;;;;;6.97;4.03;;;3.10;57.30;;;;;;5015764;28;20041;-76
2022/03/06 01:26:43;;;;;;;6.47;4.30;;;3.10;57.40;;;;;;5011838;28;20097;-77
2022/03/06 01:29:08;;;;;;;8.27;4.78;;;3.10;57.40;;;;;;5016055;28;20848;-76
2022/03/06 01:31:34;;;;;;;6.78;4.13;;;3.00;57.40;;;;;;4985943;28;20034;-76
2022/03/06 01:34:02;;;;;;;8.52;4.32;;;3.10;57.60;;;;;;4987496;28;20113;-76
2022/03/06 01:36:28;;;;;;;5.35;3.70;;;3.10;57.50;;;;;;5020449;28;20041;-76
2022/03/06 01:38:53;;;;;;;6.28;4.03;;;3.00;57.40;;;;;;5015089;28;20045;-77
2022/03/06 01:41:19;;;;;;;5.32;3.85;;;3.00;57.40;;;;;;5000480;28;20041;-76
2022/03/06 01:43:45;;;;;;;6.50;3.88;;;2.90;57.40;;;;;;5009278;28;20038;-77
2022/03/06 01:46:12;;;;;;;6.18;3.83;;;2.90;57.50;;;;;;5000749;28;20112;-78
2022/03/06 01:48:38;;;;;;;7.30;4.00;;;2.90;57.60;;;;;;4980133;28;20050;-77
2022/03/06 01:51:03;;;;;;;7.88;4.03;;;2.80;57.60;;;;;;5000294;28;20030;-75
2022/03/06 01:53:29;;;;;;;7.03;4.20;;;2.80;57.70;;;;;;5020193;28;20455;-77
2022/03/06 01:55:54;;;;;;;7.15;4.13;;;2.80;57.90;;;;;;5011043;28;20487;-76
2022/03/06 01:58:20;;;;;;;7.60;4.05;;;2.80;58.00;;;;;;4980904;28;20044;-76
2022/03/06 02:00:48;;;;;;;6.40;3.95;;;2.80;58.00;;;;;;5027377;28;20073;-77
2022/03/06 02:03:14;;;;;;;5.90;4.18;;;2.80;58.00;;;;;;5031691;28;20551;-77
2022/03/06 02:05:40;;;;;;;6.85;3.88;;;2.70;57.90;;;;;;4997588;28;20036;-77
2022/03/06 02:08:06;;;;;;;6.80;4.38;;;2.70;57.90;;;;;;5004024;28;20034;-77
2022/03/06 02:10:32;;;;;;;5.88;3.75;;;2.60;58.10;;;;;;5010163;28;20042;-76
2022/03/06 02:12:58;;;;;;;6.63;4.03;;;2.60;58.10;;;;;;4993691;28;20092;-76
2022/03/06 02:15:23;;;;;;;7.18;4.55;;;2.60;58.30;;;;;;4984446;28;20040;-77
2022/03/06 02:17:49;;;;;;;6.28;3.95;;;2.60;58.20;;;;;;4991402;28;20038;-77
2022/03/06 02:20:19;;;;;;;5.05;3.60;;;2.50;58.70;;;;;;4997064;28;20513;-76
2022/03/06 02:22:52;;;;;;;5.20;3.55;;;2.40;58.10;;;;;;5003978;28;20034;-76
2022/03/06 02:25:22;;;;;;;5.75;3.90;;;2.30;58.20;;;;;;4973255;28;20076;-76
2022/03/06 02:27:49;;;;;;;7.20;4.40;;;2.20;58.50;;;;;;4991296;28;20081;-76
2022/03/06 02:30:17;;;;;;;6.70;3.53;;;2.20;58.50;;;;;;4977583;28;20034;-76
2022/03/06 02:32:46;;;;;;;6.43;4.18;;;2.20;58.40;;;;;;5005526;28;20029;-77
2022/03/06 02:35:12;;;;;;;7.90;4.68;;;2.10;58.50;;;;;;4996175;28;20061;-76
2022/03/06 02:37:37;;;;;;;7.07;4.05;;;2.10;58.60;;;;;;4996000;28;20152;-76
2022/03/06 02:40:04;;;;;;;9.85;4.95;;;2.10;58.80;;;;;;4974125;28;20038;-76
2022/03/06 02:42:35;;;;;;;9.70;4.93;;;2.10;58.80;;;;;;5000988;28;20026;-77
2022/03/06 02:45:05;;;;;;;10.18;4.57;;;2.00;58.70;;;;;;4998179;28;20564;-76
2022/03/06 02:47:30;;;;;;;9.38;4.50;;;1.90;58.70;;;;;;4987759;28;20076;-76
2022/03/06 02:49:56;;;;;;;7.60;4.15;;;1.80;58.80;;;;;;5005946;28;20041;-76
2022/03/06 02:52:21;;;;;;;8.30;4.72;;;1.80;58.90;;;;;;4999152;28;20049;-76
2022/03/06 02:54:47;;;;;;;8.15;4.22;;;1.80;59.00;;;;;;5030192;28;20578;-76
2022/03/06 02:57:13;;;;;;;12.00;4.10;;;1.80;59.00;;;;;;5026551;28;20641;-78
2022/03/06 02:59:39;;;;;;;7.93;4.60;;;1.80;59.30;;;;;;4985215;28;20112;-76
2022/03/06 03:02:04;;;;;;;8.45;4.85;;;1.70;59.40;;;;;;4994038;28;20057;-76
2022/03/06 03:04:31;;;;;;;6.93;4.55;;;1.70;59.40;;;;;;5000968;28;20037;-76
2022/03/06 03:06:56;;;;;;;6.78;4.28;;;1.70;59.40;;;;;;4967958;28;20035;-76
2022/03/06 03:09:22;;;;;;;6.55;4.15;;;1.70;59.40;;;;;;5000384;28;20520;-77
2022/03/06 03:11:48;;;;;;;5.65;3.80;;;1.60;59.50;;;;;;4998898;28;20501;-76
2022/03/06 03:14:14;;;;;;;6.28;3.85;;;1.60;59.50;;;;;;4981554;28;20040;-77
2022/03/06 03:16:40;;;;;;;5.70;3.90;;;1.60;59.50;;;;;;4978930;28;20276;-77
2022/03/06 03:19:06;;;;;;;7.13;4.30;;;1.60;59.60;;;;;;5001637;28;20161;-77
2022/03/06 03:21:31;;;;;;;7.88;4.10;;;1.60;59.80;;;;;;4999360;28;20097;-77
2022/03/06 03:23:57;;;;;;;7.18;4.22;;;1.60;59.80;;;;;;4962112;28;20068;-76
2022/03/06 03:26:22;;;;;;;8.23;4.75;;;1.60;59.80;;;;;;4981737;28;20045;-77
2022/03/06 03:28:48;;;;;;;6.05;3.67;;;1.60;59.90;;;;;;4989875;28;20064;-77
2022/03/06 03:31:13;;;;;;;7.63;4.00;;;1.60;59.90;;;;;;5001257;28;20036;-77
2022/03/06 03:33:39;;;;;;;7.53;4.47;;;1.50;59.80;;;;;;4987594;28;20037;-77
2022/03/06 03:36:05;;;;;;;7.30;4.35;;;1.50;59.90;;;;;;5029638;28;20100;-76
2022/03/06 03:38:30;;;;;;;6.57;3.88;;;1.50;60.00;;;;;;5006381;28;20037;-77
2022/03/06 03:40:56;;;;;;;6.15;3.67;;;1.40;60.00;;;;;;4997224;28;20402;-76
2022/03/06 03:43:22;;;;;;;8.48;4.47;;;1.40;60.00;;;;;;4996764;28;20129;-76
2022/03/06 03:45:49;;;;;;;8.88;4.30;;;1.30;60.00;;;;;;4982890;28;20029;-76
2022/03/06 03:48:14;;;;;;;7.30;4.15;;;1.30;60.10;;;;;;5019294;28;20046;-77
2022/03/06 03:50:40;;;;;;;6.50;4.03;;;1.30;60.20;;;;;;5031794;28;20769;-77
2022/03/06 03:53:05;;;;;;;6.97;4.00;;;1.30;60.40;;;;;;4997291;28;20136;-76
2022/03/06 03:55:31;;;;;;;7.53;4.00;;;1.30;60.50;;;;;;4991373;28;20112;-76
2022/03/06 03:57:56;;;;;;;9.65;4.30;;;1.30;60.50;;;;;;5004983;28;20044;-77
2022/03/06 04:00:22;;;;;;;6.43;4.00;;;1.30;60.60;;;;;;4999760;28;20037;-77
2022/03/06 04:02:47;;;;;;;7.80;3.90;;;1.30;60.70;;;;;;5013619;28;20071;-77
2022/03/06 04:05:13;;;;;;;7.40;4.07;;;1.30;60.70;;;;;;4992744;28;20115;-77
2022/03/06 04:07:38;;;;;;;7.15;4.18;;;1.30;60.80;;;;;;4992848;28;20031;-76
2022/03/06 04:10:04;;;;;;;5.38;4.00;;;1.30;61.00;;;;;;5002397;28;20038;-77
2022/03/06 04:12:30;;;;;;;10.52;4.38;;;1.30;61.00;;;;;;5008209;28;20037;-76
2022/03/06 04:14:55;;;;;;;8.18;4.22;;;1.30;61.00;;;;;;4995830;28;20636;-77
2022/03/06 04:17:21;;;;;;;5.82;3.95;;;1.30;61.00;;;;;;5026498;28;20115;-76
2022/03/06 04:19:46;;;;;;;7.22;4.20;;;1.30;61.20;;;;;;5012538;28;20078;-77
2022/03/06 04:22:12;;;;;;;6.30;4.15;;;1.30;61.30;;;;;;4998841;28;20120;-76
2022/03/06 04:24:37;;;;;;;6.45;4.53;;;1.30;61.30;;;;;;4998865;28;20034;-77
2022/03/06 04:27:03;;;;;;;7.15;4.32;;;1.30;61.40;;;;;;5033574;28;20030;-77
2022/03/06 04:29:30;;;;;;;8.32;4.57;;;1.30;61.30;;;;;;4967756;28;20110;-77
2022/03/06 04:31:56;;;;;;;7.47;4.03;;;1.30;61.40;;;;;;5000995;28;20033;-76
2022/03/06 04:34:21;;;;;;;4.72;3.22;;;1.20;61.40;;;;;;5012327;28;20067;-77
2022/03/06 04:36:47;;;;;;;7.63;3.95;;;1.20;61.40;;;;;;4980137;28;20026;-76
2022/03/06 04:39:12;;;;;;;7.00;3.95;;;1.20;61.50;;;;;;4996407;28;20052;-76
2022/03/06 04:41:38;;;;;;;6.72;4.40;;;1.20;61.50;;;;;;4967939;28;20033;-77
2022/03/06 04:44:04;;;;;;;6.78;4.18;;;1.10;61.50;;;;;;4988141;28;20642;-77
2022/03/06 04:46:29;;;;;;;6.63;4.20;;;1.10;61.50;;;;;;5029959;28;20034;-77
2022/03/06 04:48:55;;;;;;;7.72;4.60;;;1.10;61.60;;;;;;4993553;28;20045;-76
2022/03/06 04:51:20;;;;;;;7.82;4.28;;;1.00;61.70;;;;;;4999149;28;20041;-77
2022/03/06 04:53:46;;;;;;;8.63;4.13;;;1.00;61.70;;;;;;5005055;28;20037;-77
2022/03/06 04:56:11;;;;;;;8.18;4.18;;;1.00;61.70;;;;;;4992448;28;20438;-76
2022/03/06 04:58:37;;;;;;;6.60;4.22;;;0.90;61.70;;;;;;5028090;28;20494;-77
2022/03/06 05:01:03;;;;;;;7.65;3.92;;;0.90;61.80;;;;;;4986569;28;20029;-77
2022/03/06 05:03:28;;;;;;;9.73;4.28;;;0.90;61.80;;;;;;5003785;28;20057;-76
2022/03/06 05:05:54;;;;;;;7.25;4.13;;;0.90;62.00;;;;;;4986010;28;20058;-76
2022/03/06 05:08:20;;;;;;;6.75;4.20;;;0.80;62.10;;;;;;4972625;28;20041;-76
2022/03/06 05:10:45;;;;;;;7.70;4.35;;;0.80;62.30;;;;;;4999393;28;20106;-76
2022/03/06 05:13:11;;;;;;;6.47;4.38;;;0.80;62.30;;;;;;4987639;28;20122;-75
2022/03/06 05:15:36;;;;;;;7.35;4.30;;;0.80;62.30;;;;;;5022129;28;20046;-76
2022/03/06 05:18:02;;;;;;;8.20;4.15;;;0.80;62.20;;;;;;5002077;28;20036;-75
2022/03/06 05:20:28;;;;;;;8.57;4.75;;;0.70;62.20;;;;;;4998478;28;20056;-77
2022/03/06 05:22:53;;;;;;;7.70;4.35;;;0.70;62.20;;;;;;4989560;28;20034;-76
2022/03/06 05:25:19;;;;;;;6.20;4.10;;;0.60;62.30;;;;;;4982697;28;20042;-76
2022/03/06 05:27:44;;;;;;;8.25;4.35;;;0.60;62.50;;;;;;5010913;28;20042;-76
2022/03/06 05:30:11;;;;;;;8.68;4.60;;;0.60;62.40;;;;;;4967107;28;20029;-76
2022/03/06 05:32:37;;;;;;;8.77;4.40;;;0.50;62.40;;;;;;4994949;28;20124;-76
2022/03/06 05:35:03;;;;;;;9.15;4.30;;;0.50;62.50;;;;;;4994109;28;20018;-76
2022/03/06 05:37:29;;;;;;;8.32;4.32;;;0.40;62.50;;;;;;5023188;28;20055;-76
2022/03/06 05:39:55;;;;;;;7.70;4.78;;;0.40;62.60;;;;;;5009267;28;20037;-76
2022/03/06 05:42:20;;;;;;;6.82;4.35;;;0.40;62.60;;;;;;4990932;28;20041;-76
2022/03/06 05:44:46;;;;;;;7.95;4.47;;;0.30;62.60;;;;;;5003205;28;20049;-76
2022/03/06 05:47:11;;;;;;;5.95;4.18;;;0.30;62.60;;;;;;5013724;28;20042;-76
2022/03/06 05:49:37;;;;;;;8.02;4.47;;;0.20;62.70;;;;;;4966003;28;20088;-76
2022/03/06 05:52:03;;;;;;;7.28;3.92;;;0.20;62.70;;;;;;5028092;28;20473;-76
2022/03/06 05:54:29;;;;;;;7.25;4.40;;;0.20;62.80;;;;;;5003498;28;20498;-77
2022/03/06 05:56:55;;;;;;;7.22;4.32;;;0.20;62.90;;;;;;4978206;28;20255;-76
2022/03/06 05:59:20;;;;;;;6.97;4.40;;;0.10;63.00;;;;;;4984412;28;20753;-77
2022/03/06 06:01:46;;;;;;;7.18;4.60;;;0.10;63.10;;;;;;5005967;28;20063;-76
2022/03/06 06:04:12;;;;;;;9.00;5.13;;;0.10;63.30;;;;;;4982181;28;20053;-76
2022/03/06 06:06:38;;;;;;;8.55;4.43;;;0.10;63.40;;;;;;4976370;28;20077;-77
2022/03/06 06:09:03;;;;;;;7.40;4.25;;;0.20;63.50;;;;;;4995662;28;20038;-76
2022/03/06 06:11:29;;;;;;;6.95;4.50;;;0.10;64.20;;;;;;4994303;28;20620;-76
2022/03/06 06:13:54;;;;;;;8.13;4.55;;;0.10;63.40;;;;;;4972447;28;20231;-76
2022/03/06 06:16:20;;;;;;;6.85;4.40;;;0.10;63.50;;;;;;5010821;28;20583;-77
2022/03/06 06:18:45;;;;;;;6.30;4.05;;;0.10;63.70;;;;;;5016602;28;20532;-76
2022/03/06 06:21:11;;;;;;;8.38;4.50;;;0.10;63.70;;;;;;4977955;28;20049;-77
2022/03/06 06:23:37;;;;;;;8.82;5.05;;;0.10;63.90;;;;;;4999709;28;20049;-77
2022/03/06 06:26:02;;;;;;;7.63;4.72;;;0.10;63.90;;;;;;5005895;28;20034;-77
2022/03/06 06:28:28;;;;;;;7.63;4.72;;;0.10;64.00;;;;;;5023261;28;20045;-78
2022/03/06 06:30:53;;;;;;;7.32;4.40;;;0.10;64.00;;;;;;4981945;28;20084;-78
2022/03/06 06:33:19;;;;;;;7.93;4.80;;;0.10;64.00;;;;;;5009064;28;20168;-76
2022/03/06 06:35:44;;;;;;;8.43;4.45;;;0.10;64.00;;;;;;4979087;28;20104;-77
2022/03/06 06:38:10;;;;;;;7.95;5.57;;;0.10;64.10;;;;;;5004153;28;20076;-77
2022/03/06 06:40:35;;;;;;;11.48;5.75;;;0.10;64.20;;;;;;4990515;28;20118;-76
2022/03/06 06:43:02;;;;;;;8.30;4.80;;;0.10;64.10;;;;;;4995055;28;20046;-77
2022/03/06 06:45:28;;;;;;;10.15;5.85;;;0.10;64.10;;;;;;4994105;28;20595;-79
2022/03/06 06:47:54;;;;;;;10.52;6.43;;;0.10;64.20;;;;;;5023248;28;20038;-77
2022/03/06 06:50:19;;;;;;;8.20;5.20;;;0.10;64.30;;;;;;4980439;28;20092;-77
2022/03/06 06:52:45;;;;;;;10.77;5.22;;;0.20;64.40;;;;;;4978547;28;20045;-75
2022/03/06 06:55:10;;;;;;;9.85;6.30;;;0.20;64.50;;;;;;5012378;28;20092;-76
2022/03/06 06:57:36;;;;;;;23.75;12.57;;;0.20;64.60;;;;;;4972992;28;20108;-76
2022/03/06 07:00:02;;;;;;;10.05;6.53;;;0.20;64.60;;;;;;4999695;28;20099;-76
2022/03/06 07:02:28;;;;;;;10.60;6.03;;;0.30;64.70;;;;;;4999125;28;20057;-76
2022/03/06 07:04:53;;;;;;;10.15;5.65;;;0.30;64.70;;;;;;5003692;28;20053;-76
2022/03/06 07:07:19;;;;;;;9.90;5.72;;;0.30;64.60;;;;;;4998741;28;20099;-75
2022/03/06 07:09:44;;;;;;;9.73;5.40;;;0.30;64.60;;;;;;5008831;28;20050;-77
2022/03/06 07:12:10;;;;;;;13.82;6.95;;;0.40;64.70;;;;;;4996165;28;20069;-76
2022/03/06 07:14:35;;;;;;;12.15;7.47;;;0.40;64.70;;;;;;4995889;28;20096;-77
2022/03/06 07:17:01;;;;;;;41.80;20.88;;;0.50;64.80;;;;;;5010565;28;20507;-76
2022/03/06 07:19:26;;;;;;;17.52;9.52;;;0.50;64.80;;;;;;5022197;28;20521;-74
2022/03/06 07:21:52;;;;;;;16.05;8.52;;;0.60;64.90;;;;;;4991527;28;20041;-77
2022/03/06 07:24:17;;;;;;;16.95;9.82;;;0.60;64.80;;;;;;5008198;28;20032;-77
2022/03/06 07:26:43;;;;;;;18.75;10.35;;;0.70;64.90;;;;;;4986538;28;20030;-76
2022/03/06 07:29:09;;;;;;;22.92;12.32;;;0.70;64.90;;;;;;5022519;28;20044;-76
2022/03/06 07:31:34;;;;;;;33.00;14.32;;;0.70;64.80;;;;;;4992447;28;20041;-77
2022/03/06 07:34:00;;;;;;;19.67;10.30;;;0.80;64.80;;;;;;5001031;28;20041;-77
2022/03/06 07:36:25;;;;;;;18.63;9.82;;;0.80;64.80;;;;;;5013804;28;20053;-76
2022/03/06 07:38:51;;;;;;;19.25;10.85;;;0.90;64.80;;;;;;5015370;28;20596;-76
2022/03/06 07:41:17;;;;;;;20.02;9.93;;;0.90;64.80;;;;;;5017961;28;20037;-76
2022/03/06 07:43:43;;;;;;;18.00;10.40;;;1.00;64.90;;;;;;5009657;28;20384;-77
2022/03/06 07:46:08;;;;;;;18.98;10.52;;;1.10;64.90;;;;;;4990092;28;20041;-77
2022/03/06 07:48:34;;;;;;;21.73;10.05;;;1.20;64.90;;;;;;5014781;28;20072;-77
2022/03/06 07:50:59;;;;;;;24.08;11.95;;;1.20;64.90;;;;;;4999565;28;20042;-76
2022/03/06 07:53:25;;;;;;;19.25;9.25;;;1.30;64.90;;;;;;4986527;28;20037;-77
2022/03/06 07:55:50;;;;;;;17.95;9.65;;;1.40;64.90;;;;;;4992232;28;20038;-77
2022/03/06 07:58:16;;;;;;;17.63;9.38;;;1.40;64.80;;;;;;5019851;28;20084;-78
2022/03/06 08:00:41;;;;;;;15.38;7.80;;;1.50;64.80;;;;;;4984121;28;20033;-77
2022/03/06 08:03:07;;;;;;;10.95;7.28;;;1.60;64.70;;;;;;5016947;28;20026;-78
2022/03/06 08:05:32;;;;;;;13.40;7.38;;;1.70;64.70;;;;;;4998612;28;20351;-76
2022/03/06 08:07:58;;;;;;;14.52;7.85;;;1.80;64.60;;;;;;5001768;28;20021;-77
2022/03/06 08:10:23;;;;;;;13.32;6.70;;;1.80;64.50;;;;;;5018722;28;20395;-76
2022/03/06 08:12:49;;;;;;;12.43;7.38;;;1.90;64.50;;;;;;4990330;28;20856;-78
2022/03/06 08:15:15;;;;;;;10.52;6.50;;;2.00;64.40;;;;;;4995804;28;20033;-76
2022/03/06 08:17:40;;;;;;;10.35;6.45;;;2.10;64.40;;;;;;4984774;28;20569;-76
2022/03/06 08:20:06;;;;;;;11.25;6.90;;;2.20;65.10;;;;;;4987234;28;20057;-77
2022/03/06 08:22:32;;;;;;;9.18;5.88;;;2.30;64.20;;;;;;4990197;28;20172;-76
2022/03/06 08:24:58;;;;;;;14.02;7.05;;;2.40;64.00;;;;;;5011931;28;20112;-77
2022/03/06 08:27:23;;;;;;;11.32;6.70;;;2.50;64.00;;;;;;4990148;28;20042;-77
2022/03/06 08:29:49;;;;;;;14.70;8.20;;;2.60;64.00;;;;;;4992573;28;20041;-77
2022/03/06 08:32:15;;;;;;;13.63;8.00;;;2.80;63.90;;;;;;4994024;28;20124;-77
2022/03/06 08:34:41;;;;;;;13.88;7.90;;;2.90;63.60;;;;;;5010336;28;20066;-77
2022/03/06 08:37:06;;;;;;;16.73;8.65;;;3.00;63.30;;;;;;4995877;28;20068;-76
2022/03/06 08:39:32;;;;;;;11.55;6.95;;;3.10;63.20;;;;;;4983711;28;20041;-78
2022/03/06 08:41:57;;;;;;;15.90;7.93;;;3.20;63.10;;;;;;4993764;28;20069;-77
2022/03/06 08:44:23;;;;;;;17.08;8.52;;;3.30;63.10;;;;;;4997428;28;20037;-77
2022/03/06 08:46:49;;;;;;;18.25;10.07;;;3.50;63.00;;;;;;5004342;28;20034;-78
2022/03/06 08:49:14;;;;;;;19.48;9.27;;;3.60;62.80;;;;;;4981923;28;20041;-77
2022/03/06 08:51:40;;;;;;;20.13;9.23;;;3.70;62.70;;;;;;4996439;28;20041;-77
2022/03/06 08:54:05;;;;;;;228.30;89.40;;;3.90;62.70;;;;;;4989326;28;20113;-77
2022/03/06 08:56:31;;;;;;;160.18;55.65;;;4.00;62.50;;;;;;5020029;28;20138;-77
2022/03/06 08:58:56;;;;;;;26.50;12.40;;;4.20;62.40;;;;;;4998834;28;20049;-77
2022/03/06 09:01:22;;;;;;;13.77;7.28;;;4.30;62.30;;;;;;4985375;28;20052;-77
2022/03/06 09:03:47;;;;;;;13.82;7.32;;;4.50;62.10;;;;;;5001077;28;20050;-77
2022/03/06 09:06:13;;;;;;;35.13;16.27;;;4.60;61.80;;;;;;5014723;28;20051;-79
2022/03/06 09:08:39;;;;;;;16.92;10.25;;;4.70;61.60;;;;;;5021906;28;20072;-78
2022/03/06 09:11:05;;;;;;;17.05;8.15;;;4.90;61.60;;;;;;5013512;28;20045;-77
2022/03/06 09:13:31;;;;;;;15.38;8.98;;;5.10;61.40;;;;;;4983234;28;20042;-77
2022/03/06 09:15:57;;;;;;;11.45;7.60;;;5.30;61.20;;;;;;4984881;28;20033;-78
2022/03/06 09:18:22;;;;;;;11.15;7.55;;;5.40;60.90;;;;;;4997940;28;20045;-77
2022/03/06 09:20:48;;;;;;;15.77;8.05;;;5.50;60.50;;;;;;4999094;28;20080;-78
2022/03/06 09:23:13;;;;;;;11.88;7.40;;;5.60;60.40;;;;;;5000519;28;20033;-77
2022/03/06 09:25:39;;;;;;;10.65;6.63;;;5.80;60.40;;;;;;5005761;28;20066;-79
2022/03/06 09:28:04;;;;;;;11.88;7.18;;;5.90;60.10;;;;;;4977946;28;20053;-77
2022/03/06 09:30:30;;;;;;;12.38;8.15;;;6.10;59.90;;;;;;5008916;28;20057;-77
2022/03/06 09:32:56;;;;;;;9.38;6.40;;;6.20;59.70;;;;;;4945891;28;20041;-78
2022/03/06 09:35:21;;;;;;;10.35;6.78;;;6.40;59.60;;;;;;5011758;28;20041;-77
2022/03/06 09:37:47;;;;;;;10.63;6.20;;;6.50;59.40;;;;;;4996361;28;20065;-79
2022/03/06 09:40:12;;;;;;;10.20;6.13;;;6.60;59.10;;;;;;5005987;28;20576;-77
2022/03/06 09:42:38;;;;;;;10.02;6.38;;;6.70;59.00;;;;;;5002891;28;20714;-77
2022/03/06 09:45:06;;;;;;;10.40;6.80;;;6.80;58.80;;;;;;4979902;28;21038;-74
2022/03/06 09:47:31;;;;;;;16.88;7.35;;;6.90;58.70;;;;;;4993075;28;20038;-78
2022/03/06 09:49:57;;;;;;;11.48;6.20;;;7.00;58.40;;;;;;4949026;28;20038;-78
2022/03/06 09:52:22;;;;;;;10.45;6.72;;;7.00;58.10;;;;;;4954892;28;20518;-78
2022/03/06 09:54:48;;;;;;;11.25;6.65;;;7.00;57.90;;;;;;5007334;28;20038;-78
2022/03/06 09:57:18;;;;;;;9.02;6.38;;;7.10;57.90;;;;;;4996633;28;20044;-77
2022/03/06 09:59:44;;;;;;;9.73;6.55;;;7.10;57.60;;;;;;4994351;28;20045;-79
2022/03/06 10:02:10;;;;;;;10.55;6.20;;;7.20;57.60;;;;;;4980509;28;20038;-79
2022/03/06 10:04:35;;;;;;;10.20;6.03;;;7.20;57.40;;;;;;4990469;28;20050;-78
2022/03/06 10:07:15;;;;;;;8.77;5.60;;;7.30;57.40;;;;;;4992077;28;20041;-78
2022/03/06 10:09:44;;;;;;;9.07;6.05;;;7.40;57.20;;;;;;4997326;28;20107;-79
2022/03/06 10:12:29;;;;;;;8.85;5.78;;;7.40;57.20;;;;;;4974080;28;20033;-77
2022/03/06 10:14:56;;;;;;;9.63;5.43;;;7.50;57.00;;;;;;5006746;28;20116;-77
2022/03/06 10:17:25;;;;;;;10.57;6.47;;;7.60;57.20;;;;;;4984130;28;20113;-78
2022/03/06 10:19:57;;;;;;;12.73;5.97;;;7.70;57.10;;;;;;4993802;28;20034;-78
2022/03/06 10:22:23;;;;;;;;;;;7.70;56.70;;;;;;4981502;28;20042;-79
2022/03/06 10:24:50;;;;;;;14.63;8.45;;;7.70;56.70;;;;;;4996530;28;19913;-78
2022/03/06 10:27:16;;;;;;;9.07;5.65;;;7.70;56.50;;;;;;4999379;28;20692;-79
2022/03/06 10:29:42;;;;;;;22.70;11.98;;;7.70;56.30;;;;;;4995799;28;20125;-79
2022/03/06 10:32:08;;;;;;;10.30;6.90;;;7.70;56.10;;;;;;4989524;28;20054;-78
2022/03/06 10:34:37;;;;;;;9.30;5.85;;;7.60;55.80;;;;;;4999219;28;20502;-78
2022/03/06 10:37:06;;;;;;;7.95;5.78;;;7.60;55.60;;;;;;4998629;28;20515;-79
2022/03/06 10:39:45;;;;;;;8.23;5.72;;;7.60;55.70;;;;;;4977972;28;20060;-78
2022/03/06 10:42:10;;;;;;;9.63;5.55;;;7.50;55.20;;;;;;4990044;28;20038;-78
2022/03/06 10:44:46;;;;;;;13.23;6.05;;;7.50;55.30;;;;;;5002587;28;20141;-78
2022/03/06 10:48:11;;;;;;;8.10;5.30;;;7.50;54.90;;;;;;4996351;28;20026;-79
2022/03/06 10:50:37;;;;;;;10.82;5.07;;;7.40;54.60;;;;;;4983555;28;20482;-79
2022/03/06 10:53:17;;;;;;;7.43;4.57;;;7.40;55.10;;;;;;4972301;28;20031;-78
2022/03/06 10:55:42;;;;;;;10.50;6.10;;;7.40;54.60;;;;;;4976493;28;20160;-78
2022/03/06 10:58:08;;;;;;;6.07;4.45;;;7.40;54.70;;;;;;4967336;28;20089;-78
2022/03/06 11:00:33;;;;;;;5.47;4.20;;;7.40;54.60;;;;;;4962013;28;20550;-78
2022/03/06 11:03:01;;;;;;;6.00;4.57;;;7.50;54.60;;;;;;4973591;28;20141;-77
2022/03/06 11:05:26;;;;;;;6.88;4.80;;;7.50;54.40;;;;;;5002220;28;20037;-77
2022/03/06 11:07:52;;;;;;;9.43;6.32;;;7.50;54.00;;;;;;4944491;28;20042;-77
2022/03/06 11:10:17;;;;;;;10.10;5.03;;;7.50;53.90;;;;;;4967406;28;20049;-78
2022/03/06 11:12:43;;;;;;;6.13;4.75;;;7.50;53.60;;;;;;4984468;28;20110;-77
2022/03/06 11:15:08;;;;;;;8.82;6.25;;;7.50;53.30;;;;;;4956669;28;20077;-77
2022/03/06 11:17:34;;;;;;;8.10;4.65;;;7.40;53.20;;;;;;4945200;28;20126;-78
2022/03/06 11:20:00;;;;;;;6.80;4.72;;;7.40;53.20;;;;;;4962296;28;20038;-76
2022/03/06 11:22:39;;;;;;;5.75;4.32;;;7.50;53.10;;;;;;4976796;28;20514;-78
2022/03/06 11:25:08;;;;;;;7.78;5.43;;;7.50;52.50;;;;;;5015363;28;20073;-78
2022/03/06 11:27:59;;;;;;;7.30;5.75;;;7.50;52.60;;;;;;4980210;28;20133;-78
2022/03/06 11:30:24;;;;;;;12.98;6.72;;;7.50;52.00;;;;;;5021959;28;20037;-78
2022/03/06 11:33:02;;;;;;;6.18;4.97;;;7.50;52.50;;;;;;4977890;28;20092;-77
2022/03/06 11:35:35;;;;;;;8.48;5.95;;;7.50;52.00;;;;;;4998451;28;20057;-78
2022/03/06 11:38:01;;;;;;;10.27;6.72;;;7.50;52.00;;;;;;4998812;28;20583;-78
2022/03/06 11:40:33;;;;;;;7.55;4.90;;;7.50;52.20;;;;;;5001332;28;20062;-78
2022/03/06 11:42:59;;;;;;;141.40;46.85;;;7.50;52.00;;;;;;4999042;28;20033;-78
2022/03/06 11:45:49;;;;;;;198.75;61.53;;;7.60;52.20;;;;;;4989683;28;20041;-78
2022/03/06 11:48:27;;;;;;;73.03;24.17;;;7.70;51.60;;;;;;4988479;28;20037;-79
2022/03/06 11:51:20;;;;;;;34.45;12.93;;;7.80;51.70;;;;;;4993356;28;20688;-78
2022/03/06 11:53:53;;;;;;;414.08;130.07;;;7.80;51.60;;;;;;5011622;28;20569;-78
2022/03/06 11:56:38;;;;;;;63.55;22.08;;;7.90;51.60;;;;;;4999098;28;20679;-79
2022/03/06 11:59:23;;;;;;;54.45;36.90;;;7.90;51.10;;;;;;4987116;28;20049;-78
2022/03/06 12:01:52;;;;;;;40.47;28.50;;;7.90;50.60;;;;;;4981128;28;20083;-79
2022/03/06 12:04:21;;;;;;;35.55;17.20;;;7.80;51.20;;;;;;4999757;28;20037;-79
2022/03/06 12:06:51;;;;;;;18.92;12.73;;;7.80;51.40;;;;;;4965087;28;20122;-78
2022/03/06 12:09:16;;;;;;;25.08;13.77;;;7.80;51.30;;;;;;5013180;28;20672;-78
2022/03/06 12:11:42;;;;;;;19.80;12.15;;;7.80;51.30;;;;;;5006620;28;20037;-78
2022/03/06 12:14:14;;;;;;;15.45;8.70;;;7.80;51.20;;;;;;5007728;28;20042;-78
2022/03/06 12:17:02;;;;;;;10.73;7.18;;;7.90;50.90;;;;;;4981008;28;20132;-78
2022/03/06 12:19:40;;;;;;;17.17;9.23;;;7.90;50.50;;;;;;4999895;28;20043;-78
2022/03/06 12:22:13;;;;;;;11.40;6.90;;;8.00;50.80;;;;;;4995356;28;20782;-78
2022/03/06 12:24:39;;;;;;;12.13;7.75;;;8.10;50.80;;;;;;5006537;28;20039;-78
2022/03/06 12:27:14;;;;;;;13.73;8.52;;;8.10;50.90;;;;;;4998475;28;20222;-78
2022/03/06 12:29:48;;;;;;;8.30;5.93;;;8.10;50.90;;;;;;4999333;28;20041;-78
2022/03/06 12:32:26;;;;;;;8.15;6.13;;;8.20;50.70;;;;;;4985982;28;20527;-78
2022/03/06 12:35:03;;;;;;;9.20;6.18;;;8.30;50.70;;;;;;4999288;28;20052;-78
2022/03/06 12:37:35;;;;;;;9.50;6.63;;;8.40;50.60;;;;;;5000285;28;20117;-75
2022/03/06 12:40:01;;;;;;;8.10;6.05;;;8.50;50.50;;;;;;5012235;28;20127;-78
2022/03/06 12:42:28;;;;;;;13.02;7.00;;;8.50;50.60;;;;;;5001282;28;20043;-78
2022/03/06 12:44:55;;;;;;;25.30;11.82;;;8.50;50.40;;;;;;5006371;28;20034;-78
2022/03/06 12:47:21;;;;;;;9.82;7.30;;;8.50;50.30;;;;;;4992709;28;20133;-78
2022/03/06 12:49:47;;;;;;;11.57;6.60;;;8.50;50.20;;;;;;5001499;28;20054;-78
2022/03/06 12:52:17;;;;;;;29.42;12.13;;;8.40;49.80;;;;;;4998346;28;20621;-78